sensor_id;sensor_type;location;lat;lon;timestamp;P1;durP1;ratioP1;P2;durP2;ratioP2
72156;SDS011;60035;52.122;5.406;2023-05-21T16:26:02;9.35;;;4.95;;
72156;SDS011;60035;52.122;5.406;2023-05-21T16:28:28;10.63;;;4.85;;
72156;SDS011;60035;52.122;5.406;2023-05-21T16:30:55;8.68;;;4.70;;
72156;SDS011;60035;52.122;5.406;2023-05-21T16:33:22;10.65;;;4.03;;
72156;SDS011;60035;52.122;5.406;2023-05-21T16:35:48;11.90;;;4.80;;
72156;SDS011;60035;52.122;5.406;2023-05-21T16:38:15;10.70;;;4.85;;
72156;SDS011;60035;52.122;5.406;2023-05-21T16:40:42;11.38;;;5.32;;
72156;SDS011;60035;52.122;5.406;2023-05-21T16:43:10;8.57;;;4.85;;
72156;SDS011;60035;52.122;5.406;2023-05-21T16:45:40;9.23;;;4.47;;
72156;SDS011;60035;52.122;5.406;2023-05-21T16:48:14;7.97;;;4.13;;
72156;SDS011;60035;52.122;5.406;2023-05-21T16:50:41;8.45;;;4.22;;
72156;SDS011;60035;52.122;5.406;2023-05-21T16:53:08;9.40;;;4.13;;
72156;SDS011;60035;52.122;5.406;2023-05-21T16:55:36;9.35;;;4.07;;
72156;SDS011;60035;52.122;5.406;2023-05-21T16:58:04;8.63;;;4.85;;
72156;SDS011;60035;52.122;5.406;2023-05-21T17:00:32;9.38;;;4.90;;
72156;SDS011;60035;52.122;5.406;2023-05-21T17:02:59;9.80;;;4.28;;
72156;SDS011;60035;52.122;5.406;2023-05-21T17:05:26;8.63;;;4.38;;
72156;SDS011;60035;52.122;5.406;2023-05-21T17:07:52;10.00;;;4.70;;
72156;SDS011;60035;52.122;5.406;2023-05-21T17:10:21;8.57;;;4.43;;
72156;SDS011;60035;52.122;5.406;2023-05-21T17:12:48;8.00;;;4.30;;
72156;SDS011;60035;52.122;5.406;2023-05-21T17:15:15;12.05;;;5.30;;
72156;SDS011;60035;52.122;5.406;2023-05-21T17:17:41;11.07;;;4.97;;
72156;SDS011;60035;52.122;5.406;2023-05-21T17:20:08;10.02;;;4.85;;
72156;SDS011;60035;52.122;5.406;2023-05-21T17:22:35;8.95;;;4.90;;
72156;SDS011;60035;52.122;5.406;2023-05-21T17:25:02;10.30;;;4.88;;
72156;SDS011;60035;52.122;5.406;2023-05-21T17:27:28;11.45;;;5.20;;
72156;SDS011;60035;52.122;5.406;2023-05-21T17:29:55;9.88;;;5.00;;
72156;SDS011;60035;52.122;5.406;2023-05-21T17:32:22;10.48;;;5.18;;
72156;SDS011;60035;52.122;5.406;2023-05-21T17:34:49;9.35;;;5.13;;
72156;SDS011;60035;52.122;5.406;2023-05-21T17:37:15;9.82;;;5.53;;
72156;SDS011;60035;52.122;5.406;2023-05-21T17:39:42;11.00;;;5.50;;
72156;SDS011;60035;52.122;5.406;2023-05-21T17:42:08;12.75;;;5.75;;
72156;SDS011;60035;52.122;5.406;2023-05-21T17:44:35;10.48;;;5.63;;
72156;SDS011;60035;52.122;5.406;2023-05-21T17:47:02;10.90;;;5.90;;
72156;SDS011;60035;52.122;5.406;2023-05-21T17:49:28;11.18;;;5.88;;
72156;SDS011;60035;52.122;5.406;2023-05-21T17:51:55;14.30;;;6.10;;
72156;SDS011;60035;52.122;5.406;2023-05-21T17:54:21;13.95;;;5.90;;
72156;SDS011;60035;52.122;5.406;2023-05-21T17:56:48;12.38;;;5.88;;
72156;SDS011;60035;52.122;5.406;2023-05-21T17:59:14;11.77;;;6.70;;
72156;SDS011;60035;52.122;5.406;2023-05-21T18:01:41;12.68;;;6.93;;
72156;SDS011;60035;52.122;5.406;2023-05-21T18:04:08;13.40;;;7.25;;
72156;SDS011;60035;52.122;5.406;2023-05-21T18:06:36;13.45;;;7.43;;
72156;SDS011;60035;52.122;5.406;2023-05-21T18:09:03;13.77;;;7.40;;
72156;SDS011;60035;52.122;5.406;2023-05-21T18:11:33;13.63;;;7.32;;
72156;SDS011;60035;52.122;5.406;2023-05-21T18:13:59;13.95;;;7.15;;
72156;SDS011;60035;52.122;5.406;2023-05-21T18:16:26;15.38;;;7.20;;
72156;SDS011;60035;52.122;5.406;2023-05-21T18:18:55;15.93;;;7.50;;
72156;SDS011;60035;52.122;5.406;2023-05-21T18:21:22;17.13;;;7.65;;
72156;SDS011;60035;52.122;5.406;2023-05-21T18:23:48;15.15;;;7.82;;
72156;SDS011;60035;52.122;5.406;2023-05-21T18:26:15;12.55;;;6.80;;
72156;SDS011;60035;52.122;5.406;2023-05-21T18:28:41;13.43;;;6.82;;
72156;SDS011;60035;52.122;5.406;2023-05-21T18:31:08;12.93;;;7.05;;
72156;SDS011;60035;52.122;5.406;2023-05-21T18:33:34;13.48;;;7.22;;
72156;SDS011;60035;52.122;5.406;2023-05-21T18:36:01;15.48;;;8.15;;
72156;SDS011;60035;52.122;5.406;2023-05-21T18:38:28;13.10;;;7.75;;
72156;SDS011;60035;52.122;5.406;2023-05-21T18:40:54;15.90;;;7.57;;
72156;SDS011;60035;52.122;5.406;2023-05-21T18:43:21;15.55;;;7.57;;
72156;SDS011;60035;52.122;5.406;2023-05-21T18:45:47;15.05;;;8.15;;
72156;SDS011;60035;52.122;5.406;2023-05-21T18:48:14;15.30;;;7.95;;
72156;SDS011;60035;52.122;5.406;2023-05-21T18:50:41;16.08;;;8.20;;
72156;SDS011;60035;52.122;5.406;2023-05-21T18:53:08;15.05;;;7.55;;
72156;SDS011;60035;52.122;5.406;2023-05-21T18:55:35;17.48;;;7.72;;
72156;SDS011;60035;52.122;5.406;2023-05-21T18:58:02;20.23;;;8.93;;
72156;SDS011;60035;52.122;5.406;2023-05-21T19:00:28;15.10;;;8.63;;
72156;SDS011;60035;52.122;5.406;2023-05-21T19:02:55;16.05;;;8.55;;
72156;SDS011;60035;52.122;5.406;2023-05-21T19:05:21;15.98;;;8.35;;
72156;SDS011;60035;52.122;5.406;2023-05-21T19:07:51;15.30;;;7.22;;
72156;SDS011;60035;52.122;5.406;2023-05-21T19:10:17;19.23;;;9.60;;
72156;SDS011;60035;52.122;5.406;2023-05-21T19:12:44;18.00;;;9.05;;
72156;SDS011;60035;52.122;5.406;2023-05-21T19:15:11;17.20;;;9.18;;
72156;SDS011;60035;52.122;5.406;2023-05-21T19:17:38;17.77;;;9.85;;
72156;SDS011;60035;52.122;5.406;2023-05-21T19:20:06;22.30;;;10.23;;
72156;SDS011;60035;52.122;5.406;2023-05-21T19:22:33;18.33;;;9.70;;
72156;SDS011;60035;52.122;5.406;2023-05-21T19:25:02;17.17;;;9.15;;
72156;SDS011;60035;52.122;5.406;2023-05-21T19:27:29;18.58;;;9.55;;
72156;SDS011;60035;52.122;5.406;2023-05-21T19:29:56;18.67;;;9.63;;
72156;SDS011;60035;52.122;5.406;2023-05-21T19:32:22;19.83;;;9.80;;
72156;SDS011;60035;52.122;5.406;2023-05-21T19:34:49;17.00;;;10.25;;
72156;SDS011;60035;52.122;5.406;2023-05-21T19:37:16;20.80;;;9.57;;
72156;SDS011;60035;52.122;5.406;2023-05-21T19:39:43;19.02;;;8.85;;
72156;SDS011;60035;52.122;5.406;2023-05-21T19:42:15;17.80;;;9.57;;
72156;SDS011;60035;52.122;5.406;2023-05-21T19:44:42;19.45;;;10.43;;
72156;SDS011;60035;52.122;5.406;2023-05-21T19:47:09;17.55;;;9.80;;
72156;SDS011;60035;52.122;5.406;2023-05-21T19:49:35;18.95;;;9.70;;
72156;SDS011;60035;52.122;5.406;2023-05-21T19:52:02;22.40;;;11.23;;
72156;SDS011;60035;52.122;5.406;2023-05-21T19:54:29;16.40;;;9.35;;
72156;SDS011;60035;52.122;5.406;2023-05-21T19:56:56;17.23;;;8.73;;
72156;SDS011;60035;52.122;5.406;2023-05-21T19:59:22;18.85;;;9.85;;
72156;SDS011;60035;52.122;5.406;2023-05-21T20:01:49;21.17;;;10.65;;
72156;SDS011;60035;52.122;5.406;2023-05-21T20:04:16;18.30;;;10.00;;
72156;SDS011;60035;52.122;5.406;2023-05-21T20:06:43;18.17;;;9.00;;
72156;SDS011;60035;52.122;5.406;2023-05-21T20:09:09;18.38;;;9.85;;
72156;SDS011;60035;52.122;5.406;2023-05-21T20:11:38;19.33;;;9.43;;
72156;SDS011;60035;52.122;5.406;2023-05-21T20:14:05;19.27;;;9.00;;
72156;SDS011;60035;52.122;5.406;2023-05-21T20:16:31;19.80;;;10.10;;
72156;SDS011;60035;52.122;5.406;2023-05-21T20:18:58;14.80;;;8.63;;
72156;SDS011;60035;52.122;5.406;2023-05-21T20:21:28;16.52;;;8.65;;
72156;SDS011;60035;52.122;5.406;2023-05-21T20:23:55;22.90;;;10.00;;
72156;SDS011;60035;52.122;5.406;2023-05-21T20:26:21;19.33;;;9.88;;
72156;SDS011;60035;52.122;5.406;2023-05-21T20:28:48;18.23;;;9.13;;
72156;SDS011;60035;52.122;5.406;2023-05-21T20:31:14;20.30;;;9.20;;
72156;SDS011;60035;52.122;5.406;2023-05-21T20:33:41;21.10;;;9.65;;
72156;SDS011;60035;52.122;5.406;2023-05-21T20:36:08;20.70;;;9.43;;
72156;SDS011;60035;52.122;5.406;2023-05-21T20:38:35;16.88;;;9.35;;
72156;SDS011;60035;52.122;5.406;2023-05-21T20:41:03;17.75;;;9.13;;
72156;SDS011;60035;52.122;5.406;2023-05-21T20:43:30;19.77;;;9.85;;
72156;SDS011;60035;52.122;5.406;2023-05-21T20:45:58;19.80;;;10.25;;
72156;SDS011;60035;52.122;5.406;2023-05-21T20:48:25;16.95;;;10.10;;
72156;SDS011;60035;52.122;5.406;2023-05-21T20:50:57;23.38;;;10.35;;
72156;SDS011;60035;52.122;5.406;2023-05-21T20:53:25;21.73;;;9.40;;
72156;SDS011;60035;52.122;5.406;2023-05-21T20:55:52;18.33;;;9.50;;
72156;SDS011;60035;52.122;5.406;2023-05-21T20:58:20;18.48;;;8.90;;
72156;SDS011;60035;52.122;5.406;2023-05-21T21:00:49;19.27;;;10.13;;
72156;SDS011;60035;52.122;5.406;2023-05-21T21:03:16;18.15;;;8.90;;
72156;SDS011;60035;52.122;5.406;2023-05-21T21:05:43;20.90;;;9.60;;
72156;SDS011;60035;52.122;5.406;2023-05-21T21:08:10;21.35;;;10.10;;
72156;SDS011;60035;52.122;5.406;2023-05-21T21:10:37;19.23;;;9.85;;
72156;SDS011;60035;52.122;5.406;2023-05-21T21:13:06;16.50;;;9.13;;
72156;SDS011;60035;52.122;5.406;2023-05-21T21:15:33;23.13;;;10.05;;
72156;SDS011;60035;52.122;5.406;2023-05-21T21:18:00;23.30;;;9.63;;
72156;SDS011;60035;52.122;5.406;2023-05-21T21:20:26;17.98;;;9.55;;
72156;SDS011;60035;52.122;5.406;2023-05-21T21:22:53;19.35;;;9.55;;
72156;SDS011;60035;52.122;5.406;2023-05-21T21:25:19;18.95;;;9.18;;
72156;SDS011;60035;52.122;5.406;2023-05-21T21:27:47;21.77;;;11.15;;
72156;SDS011;60035;52.122;5.406;2023-05-21T21:30:13;17.75;;;9.68;;
72156;SDS011;60035;52.122;5.406;2023-05-21T21:32:40;19.98;;;9.70;;
72156;SDS011;60035;52.122;5.406;2023-05-21T21:35:06;21.20;;;10.20;;
72156;SDS011;60035;52.122;5.406;2023-05-21T21:37:35;18.98;;;10.18;;
72156;SDS011;60035;52.122;5.406;2023-05-21T21:40:01;20.65;;;10.40;;
72156;SDS011;60035;52.122;5.406;2023-05-21T21:42:28;20.55;;;10.95;;
72156;SDS011;60035;52.122;5.406;2023-05-21T21:44:55;20.80;;;10.98;;
72156;SDS011;60035;52.122;5.406;2023-05-21T21:47:21;21.80;;;9.75;;
72156;SDS011;60035;52.122;5.406;2023-05-21T21:49:48;22.55;;;11.13;;
72156;SDS011;60035;52.122;5.406;2023-05-21T21:52:15;21.65;;;11.18;;
72156;SDS011;60035;52.122;5.406;2023-05-21T21:54:42;23.15;;;11.32;;
72156;SDS011;60035;52.122;5.406;2023-05-21T21:57:09;20.33;;;10.05;;
72156;SDS011;60035;52.122;5.406;2023-05-21T21:59:36;23.73;;;12.18;;
72156;SDS011;60035;52.122;5.406;2023-05-21T22:02:03;20.88;;;11.32;;
72156;SDS011;60035;52.122;5.406;2023-05-21T22:04:29;21.23;;;10.23;;
72156;SDS011;60035;52.122;5.406;2023-05-21T22:06:56;21.15;;;10.98;;
72156;SDS011;60035;52.122;5.406;2023-05-21T22:09:23;21.95;;;11.80;;
72156;SDS011;60035;52.122;5.406;2023-05-21T22:11:49;24.48;;;11.00;;
72156;SDS011;60035;52.122;5.406;2023-05-21T22:14:17;26.02;;;12.32;;
72156;SDS011;60035;52.122;5.406;2023-05-21T22:16:43;24.02;;;11.45;;
72156;SDS011;60035;52.122;5.406;2023-05-21T22:19:10;23.50;;;11.98;;
72156;SDS011;60035;52.122;5.406;2023-05-21T22:21:38;22.02;;;11.52;;
72156;SDS011;60035;52.122;5.406;2023-05-21T22:24:04;25.00;;;12.75;;
72156;SDS011;60035;52.122;5.406;2023-05-21T22:26:31;21.10;;;11.63;;
72156;SDS011;60035;52.122;5.406;2023-05-21T22:28:58;24.45;;;11.73;;
72156;SDS011;60035;52.122;5.406;2023-05-21T22:31:25;22.92;;;10.20;;
72156;SDS011;60035;52.122;5.406;2023-05-21T22:33:51;20.38;;;10.80;;
72156;SDS011;60035;52.122;5.406;2023-05-21T22:36:18;21.80;;;11.32;;
72156;SDS011;60035;52.122;5.406;2023-05-21T22:38:45;23.42;;;11.18;;
72156;SDS011;60035;52.122;5.406;2023-05-21T22:41:11;23.40;;;12.27;;
72156;SDS011;60035;52.122;5.406;2023-05-21T22:43:38;22.60;;;12.23;;
72156;SDS011;60035;52.122;5.406;2023-05-21T22:46:04;21.10;;;11.90;;
72156;SDS011;60035;52.122;5.406;2023-05-21T22:48:31;26.30;;;12.20;;
72156;SDS011;60035;52.122;5.406;2023-05-21T22:50:59;23.83;;;12.52;;
72156;SDS011;60035;52.122;5.406;2023-05-21T22:53:27;24.40;;;12.38;;
72156;SDS011;60035;52.122;5.406;2023-05-21T22:55:53;21.58;;;12.30;;
72156;SDS011;60035;52.122;5.406;2023-05-21T22:58:20;24.38;;;11.80;;
72156;SDS011;60035;52.122;5.406;2023-05-21T23:00:46;28.38;;;13.35;;
72156;SDS011;60035;52.122;5.406;2023-05-21T23:03:13;24.45;;;12.75;;
72156;SDS011;60035;52.122;5.406;2023-05-21T23:05:40;25.50;;;13.02;;
72156;SDS011;60035;52.122;5.406;2023-05-21T23:08:06;22.25;;;11.88;;
72156;SDS011;60035;52.122;5.406;2023-05-21T23:10:33;24.60;;;12.57;;
72156;SDS011;60035;52.122;5.406;2023-05-21T23:13:00;20.95;;;10.77;;
72156;SDS011;60035;52.122;5.406;2023-05-21T23:15:27;25.27;;;12.93;;
72156;SDS011;60035;52.122;5.406;2023-05-21T23:17:55;27.55;;;12.90;;
72156;SDS011;60035;52.122;5.406;2023-05-21T23:20:22;22.00;;;11.60;;
72156;SDS011;60035;52.122;5.406;2023-05-21T23:22:49;23.55;;;12.68;;
72156;SDS011;60035;52.122;5.406;2023-05-21T23:25:16;23.83;;;12.90;;
72156;SDS011;60035;52.122;5.406;2023-05-21T23:27:43;28.70;;;13.50;;
72156;SDS011;60035;52.122;5.406;2023-05-21T23:30:10;22.63;;;12.45;;
72156;SDS011;60035;52.122;5.406;2023-05-21T23:32:37;26.10;;;12.60;;
72156;SDS011;60035;52.122;5.406;2023-05-21T23:35:04;22.88;;;13.45;;
72156;SDS011;60035;52.122;5.406;2023-05-21T23:37:30;26.27;;;12.15;;
72156;SDS011;60035;52.122;5.406;2023-05-21T23:39:57;26.02;;;13.10;;
72156;SDS011;60035;52.122;5.406;2023-05-21T23:42:23;27.35;;;13.48;;
72156;SDS011;60035;52.122;5.406;2023-05-21T23:44:50;26.15;;;14.07;;
72156;SDS011;60035;52.122;5.406;2023-05-21T23:47:17;26.48;;;13.20;;
72156;SDS011;60035;52.122;5.406;2023-05-21T23:49:43;28.85;;;13.80;;
72156;SDS011;60035;52.122;5.406;2023-05-21T23:52:10;31.52;;;15.30;;
72156;SDS011;60035;52.122;5.406;2023-05-21T23:54:38;28.77;;;13.98;;
72156;SDS011;60035;52.122;5.406;2023-05-21T23:57:05;28.27;;;15.05;;
72156;SDS011;60035;52.122;5.406;2023-05-21T23:59:31;24.98;;;13.82;;
